Time;durP1;ratioP1;P1;durP2;ratioP2;P2;SDS_P1;SDS_P2;PMS_P1;PMS_P2;Temp;Humidity;BMP_temperature;BMP_pressure;BME280_temperature;BME280_humidity;BME280_pressure;Samples;Min_cycle;Max_cycle;Signal;HPM_P1;HPM_P2
2023/01/22 00:01:02;;;;;;;69.80;22.63;;;;;;;-3.00;100.00;103148.03;5064280;28;20373;-74
2023/01/22 00:03:28;;;;;;;76.20;24.35;;;;;;;-2.98;100.00;103151.69;5061123;28;20518;-74
2023/01/22 00:05:53;;;;;;;79.15;24.90;;;;;;;-3.02;100.00;103148.63;5058723;28;20448;-74
2023/01/22 00:08:19;;;;;;;69.18;22.25;;;;;;;-3.04;100.00;103156.16;5071034;28;20115;-74
2023/01/22 00:10:52;;;;;;;75.55;22.48;;;;;;;-3.03;100.00;103151.94;5074990;28;20025;-73
2023/01/22 00:13:18;;;;;;;69.57;21.65;;;;;;;-3.10;100.00;103156.41;5055026;28;20037;-73
2023/01/22 00:15:44;;;;;;;82.07;23.80;;;;;;;-3.13;100.00;103148.38;5054131;28;20107;-74
2023/01/22 00:18:09;;;;;;;70.47;21.40;;;;;;;-3.15;100.00;103143.78;5054533;28;20167;-74
2023/01/22 00:20:35;;;;;;;62.80;22.83;;;;;;;-3.15;100.00;103146.38;5053638;28;20028;-73
2023/01/22 00:23:00;;;;;;;72.57;22.92;;;;;;;-3.12;100.00;103147.63;5052598;28;20488;-72
2023/01/22 00:25:25;;;;;;;72.00;21.35;;;;;;;-3.12;100.00;103144.13;5059337;28;20029;-74
2023/01/22 00:27:51;;;;;;;66.85;21.48;;;;;;;-3.12;100.00;103141.53;5055124;28;20029;-74
2023/01/22 00:30:16;;;;;;;71.00;21.17;;;;;;;-3.12;100.00;103145.06;5054105;28;20041;-73
2023/01/22 00:32:41;;;;;;;77.90;23.95;;;;;;;-3.13;100.00;103138.06;5052149;28;20053;-72
2023/01/22 00:35:07;;;;;;;60.80;19.48;;;;;;;-3.12;100.00;103139.91;5053113;28;20037;-74
2023/01/22 00:37:32;;;;;;;61.80;20.10;;;;;;;-3.10;100.00;103142.63;5054429;28;20047;-73
2023/01/22 00:39:58;;;;;;;62.63;18.65;;;;;;;-3.09;100.00;103141.91;5043637;28;20055;-72
2023/01/22 00:42:24;;;;;;;64.35;21.38;;;;;;;-3.06;100.00;103142.22;5039054;28;20033;-74
2023/01/22 00:44:49;;;;;;;71.68;20.63;;;;;;;-3.01;100.00;103140.13;5040843;28;20074;-74
2023/01/22 00:47:15;;;;;;;58.50;18.77;;;;;;;-2.92;100.00;103147.19;5063709;28;20039;-73
2023/01/22 00:49:40;;;;;;;63.05;20.95;;;;;;;-2.82;100.00;103141.41;5065776;28;20047;-73
2023/01/22 00:52:05;;;;;;;64.68;21.48;;;;;;;-2.73;100.00;103142.38;5059860;28;20040;-74
2023/01/22 00:54:31;;;;;;;59.03;19.98;;;;;;;-2.63;100.00;103145.94;5062257;28;20033;-73
2023/01/22 00:56:56;;;;;;;58.17;20.65;;;;;;;-2.56;100.00;103146.75;5052075;28;20021;-73
2023/01/22 00:59:22;;;;;;;62.08;20.80;;;;;;;-2.47;100.00;103146.84;5056286;28;20081;-73
2023/01/22 01:01:47;;;;;;;66.80;20.98;;;;;;;-2.39;100.00;103135.69;5058655;28;20460;-73
2023/01/22 01:04:13;;;;;;;50.88;18.52;;;;;;;-2.33;100.00;103137.06;5051808;28;20446;-73
2023/01/22 01:06:39;;;;;;;54.00;20.45;;;;;;;-2.26;100.00;103124.06;5058074;28;20137;-73
2023/01/22 01:09:04;;;;;;;49.35;20.67;;;;;;;-2.20;100.00;103124.69;5068200;28;20024;-73
2023/01/22 01:11:30;;;;;;;57.22;19.77;;;;;;;-2.16;100.00;103124.28;5067837;28;20025;-73
2023/01/22 01:13:56;;;;;;;55.10;19.95;;;;;;;-2.13;100.00;103115.94;5052902;28;20033;-74
2023/01/22 01:16:28;;;;;;;62.95;21.00;;;;;;;-2.10;100.00;103117.19;5052295;28;20647;-73
2023/01/22 01:19:04;;;;;;;53.17;20.50;;;;;;;-2.07;100.00;103121.75;5060215;28;20055;-73
2023/01/22 01:21:30;;;;;;;55.53;18.77;;;;;;;-2.06;100.00;103119.34;5053760;28;20120;-74
2023/01/22 01:23:57;;;;;;;63.40;19.63;;;;;;;-2.03;100.00;103122.22;5052722;28;20032;-73
2023/01/22 01:26:23;;;;;;;53.67;18.85;;;;;;;-1.98;100.00;103122.72;5058507;28;20029;-74
2023/01/22 01:28:51;;;;;;;58.22;20.23;;;;;;;-1.95;100.00;103116.97;5049899;28;20021;-72
2023/01/22 01:31:20;;;;;;;58.78;19.65;;;;;;;-1.93;100.00;103120.59;5054114;28;20039;-72
2023/01/22 01:33:46;;;;;;;53.20;20.40;;;;;;;-1.94;100.00;103111.03;5052135;28;20206;-73
2023/01/22 01:36:19;;;;;;;51.03;18.42;;;;;;;-1.92;100.00;103117.28;5052616;28;20420;-74
2023/01/22 01:38:45;;;;;;;53.07;17.80;;;;;;;-1.91;100.00;103120.00;5052743;28;20048;-74
2023/01/22 01:41:18;;;;;;;55.30;19.65;;;;;;;-1.89;100.00;103113.31;5063311;28;20283;-73
2023/01/22 01:43:43;;;;;;;48.97;18.58;;;;;;;-1.88;100.00;103110.00;5060868;28;20047;-73
2023/01/22 01:46:21;;;;;;;42.63;17.15;;;;;;;-1.85;100.00;103109.41;5053013;28;20029;-73
2023/01/22 01:48:51;;;;;;;52.72;18.67;;;;;;;-1.82;100.00;103108.81;5052916;28;20039;-72
2023/01/22 01:51:23;;;;;;;51.00;19.73;;;;;;;-1.81;100.00;103111.56;5057755;28;20097;-73
2023/01/22 01:53:50;;;;;;;40.55;17.80;;;;;;;-1.79;100.00;103107.47;5065140;28;20151;-73
2023/01/22 01:56:28;;;;;;;50.25;18.02;;;;;;;-1.78;100.00;103106.69;5055348;28;20040;-73
2023/01/22 01:59:01;;;;;;;42.40;16.77;;;;;;;-1.75;100.00;103107.03;5050915;28;20606;-74
2023/01/22 02:01:26;;;;;;;50.50;18.40;;;;;;;-1.71;100.00;103100.50;5051851;28;20373;-72
2023/01/22 02:03:52;;;;;;;43.63;18.17;;;;;;;-1.68;100.00;103092.16;5061071;28;20056;-74
2023/01/22 02:06:19;;;;;;;39.20;16.02;;;;;;;-1.66;100.00;103086.41;5051874;28;20028;-74
2023/01/22 02:08:47;;;;;;;39.65;17.55;;;;;;;-1.61;100.00;103087.78;5053408;28;20041;-72
2023/01/22 02:11:14;;;;;;;42.58;17.75;;;;;;;-1.55;100.00;103090.09;5049621;28;20485;-72
2023/01/22 02:13:45;;;;;;;47.95;18.08;;;;;;;-1.53;100.00;103088.59;5056248;28;20028;-73
2023/01/22 02:16:11;;;;;;;49.83;18.10;;;;;;;-1.54;100.00;103081.59;5051723;28;20033;-73
2023/01/22 02:18:37;;;;;;;39.53;16.52;;;;;;;-1.53;100.00;103079.16;5059384;28;20066;-74
2023/01/22 02:21:03;;;;;;;38.83;16.27;;;;;;;-1.52;100.00;103080.06;5068807;28;20024;-74
2023/01/22 02:23:31;;;;;;;40.30;16.33;;;;;;;-1.49;100.00;103079.47;5052325;28;20400;-73
2023/01/22 02:25:59;;;;;;;32.80;16.48;;;;;;;-1.45;100.00;103081.59;5054643;28;20032;-73
2023/01/22 02:28:25;;;;;;;28.80;15.38;;;;;;;-1.47;100.00;103071.13;5061641;28;20111;-73
2023/01/22 02:30:50;;;;;;;35.30;14.55;;;;;;;-1.46;100.00;103072.03;5062132;28;20120;-73
2023/01/22 02:33:16;;;;;;;37.03;16.00;;;;;;;-1.47;100.00;103078.84;5051167;28;20104;-73
2023/01/22 02:35:41;;;;;;;37.45;17.38;;;;;;;-1.48;100.00;103061.53;5059100;28;20381;-72
2023/01/22 02:38:07;;;;;;;35.58;17.60;;;;;;;-1.49;100.00;103069.13;5050548;28;20563;-73
2023/01/22 02:40:32;;;;;;;42.70;17.25;;;;;;;-1.51;100.00;103071.56;5053193;28;20028;-73
2023/01/22 02:42:58;;;;;;;38.42;17.15;;;;;;;-1.52;100.00;103072.31;5057848;28;20086;-73
2023/01/22 02:45:23;;;;;;;37.47;15.65;;;;;;;-1.53;100.00;103066.25;5054370;28;20025;-72
2023/01/22 02:47:48;;;;;;;34.30;16.08;;;;;;;-1.53;100.00;103067.94;5051916;28;20425;-74
2023/01/22 02:50:15;;;;;;;48.72;16.38;;;;;;;-1.54;100.00;103063.50;5055359;28;20025;-72
2023/01/22 02:52:40;;;;;;;36.40;15.57;;;;;;;-1.55;100.00;103067.78;5053189;28;20454;-71
2023/01/22 02:55:06;;;;;;;34.83;15.13;;;;;;;-1.55;100.00;103064.25;5053726;28;20024;-73
2023/01/22 02:57:31;;;;;;;36.00;15.43;;;;;;;-1.54;100.00;103058.34;5065264;28;20383;-72
2023/01/22 02:59:57;;;;;;;40.28;16.02;;;;;;;-1.54;100.00;103060.94;5053125;28;20021;-74
2023/01/22 03:02:23;;;;;;;35.28;13.90;;;;;;;-1.55;100.00;103069.44;5051146;28;20154;-73
2023/01/22 03:04:49;;;;;;;38.20;16.08;;;;;;;-1.56;100.00;103067.59;5050483;28;20366;-71
2023/01/22 03:07:18;;;;;;;41.67;15.98;;;;;;;-1.59;100.00;103067.28;5052054;28;20025;-73
2023/01/22 03:09:44;;;;;;;32.35;14.85;;;;;;;-1.62;100.00;103069.56;5054369;28;20044;-73
2023/01/22 03:12:10;;;;;;;35.55;15.13;;;;;;;-1.66;100.00;103060.59;5058407;28;20025;-73
2023/01/22 03:22:48;;;;;;;38.40;14.77;;;;;;;-1.70;100.00;103061.97;5055001;28;20349;-73
2023/01/22 03:25:13;;;;;;;35.10;15.20;;;;;;;-1.67;100.00;103057.84;5054309;28;20111;-73
2023/01/22 03:28:07;;;;;;;31.13;15.05;;;;;;;-1.66;100.00;103062.28;5057145;28;20024;-73
2023/01/22 03:30:24;;;;;;;41.95;15.88;;;;;;;-1.65;100.00;103053.78;5054988;28;20071;-72
2023/01/22 03:32:49;;;;;;;34.28;14.32;;;;;;;-1.66;100.00;103052.84;5056441;28;20055;-73
2023/01/22 03:35:15;;;;;;;32.42;14.30;;;;;;;-1.61;100.00;103055.91;5054392;28;20021;-73
2023/01/22 03:37:40;;;;;;;33.38;14.32;;;;;;;-1.58;100.00;103054.53;5053810;28;20146;-73
2023/01/22 03:40:06;;;;;;;34.42;14.73;;;;;;;-1.57;100.00;103048.63;5059316;28;20031;-73
2023/01/22 03:42:32;;;;;;;30.27;13.35;;;;;;;-1.53;100.00;103048.19;5053304;28;20020;-72
2023/01/22 03:44:57;;;;;;;33.80;15.18;;;;;;;-1.51;100.00;103045.75;5061975;28;20036;-72
2023/01/22 03:47:22;;;;;;;37.45;14.73;;;;;;;-1.51;100.00;103040.56;5060852;28;20546;-72
2023/01/22 03:49:48;;;;;;;36.35;14.02;;;;;;;-1.50;100.00;103046.69;5054369;28;20032;-73
2023/01/22 03:52:13;;;;;;;27.00;12.90;;;;;;;-1.47;100.00;103046.97;5053938;28;20025;-73
2023/01/22 03:54:38;;;;;;;31.42;13.93;;;;;;;-1.50;100.00;103042.41;5055356;28;20441;-73
2023/01/22 03:57:04;;;;;;;27.60;12.73;;;;;;;-1.48;100.00;103043.47;5054927;28;20468;-73
2023/01/22 03:59:29;;;;;;;28.35;12.40;;;;;;;-1.51;100.00;103032.84;5054696;28;20029;-71
2023/01/22 04:01:55;;;;;;;35.75;14.05;;;;;;;-1.51;100.00;103038.00;5052011;28;20401;-72
2023/01/22 04:04:20;;;;;;;28.15;12.45;;;;;;;-1.51;100.00;103035.41;5065275;28;20484;-73
2023/01/22 04:06:45;;;;;;;37.35;14.23;;;;;;;-1.49;100.00;103035.56;5054919;28;20460;-73
2023/01/22 04:09:11;;;;;;;30.33;14.02;;;;;;;-1.48;100.00;103035.72;5054085;28;20373;-74
2023/01/22 04:11:36;;;;;;;29.42;13.75;;;;;;;-1.48;100.00;103030.56;5052860;28;20599;-72
2023/01/22 04:14:02;;;;;;;29.25;13.48;;;;;;;-1.49;100.00;103023.59;5057281;28;20377;-73
2023/01/22 04:16:27;;;;;;;29.27;12.88;;;;;;;-1.50;100.00;103026.91;5053794;28;20044;-74
2023/01/22 04:18:52;;;;;;;30.13;12.57;;;;;;;-1.49;100.00;103021.00;5054873;28;20024;-73
2023/01/22 04:21:18;;;;;;;26.48;13.43;;;;;;;-1.52;100.00;103023.25;5054802;28;20086;-74
2023/01/22 04:23:43;;;;;;;30.88;13.65;;;;;;;-1.53;100.00;103026.63;5054743;28;20102;-73
2023/01/22 04:26:08;;;;;;;25.42;12.50;;;;;;;-1.56;100.00;103023.69;5053288;28;20052;-72
2023/01/22 04:28:34;;;;;;;31.45;12.00;;;;;;;-1.59;100.00;103023.41;5061756;28;20124;-73
2023/01/22 04:30:59;;;;;;;27.33;13.10;;;;;;;-1.64;100.00;103016.84;5064602;28;20025;-72
2023/01/22 04:33:25;;;;;;;27.42;13.50;;;;;;;-1.66;100.00;103023.56;5053598;28;20028;-73
2023/01/22 04:35:51;;;;;;;28.40;12.05;;;;;;;-1.65;100.00;103022.81;5052111;28;20029;-73
2023/01/22 04:38:17;;;;;;;26.60;11.85;;;;;;;-1.68;100.00;103020.81;5053632;28;20036;-74
2023/01/22 04:40:43;;;;;;;28.80;11.80;;;;;;;-1.66;100.00;103015.81;5054580;28;20376;-72
2023/01/22 04:43:09;;;;;;;27.15;11.90;;;;;;;-1.65;100.00;103015.06;5061430;28;20024;-73
2023/01/22 04:45:35;;;;;;;24.27;11.23;;;;;;;-1.70;100.00;103018.09;5051506;28;20024;-73
2023/01/22 04:48:01;;;;;;;26.23;11.80;;;;;;;-1.73;100.00;103020.34;5052653;28;20035;-73
2023/01/22 04:50:30;;;;;;;26.25;11.40;;;;;;;-1.76;100.00;103024.28;5051646;28;20119;-72
2023/01/22 04:52:56;;;;;;;23.05;11.15;;;;;;;-1.80;100.00;103019.59;5054370;28;20036;-73
2023/01/22 04:55:23;;;;;;;22.02;11.23;;;;;;;-1.82;100.00;103016.81;5061649;28;20037;-74
2023/01/22 04:57:48;;;;;;;24.27;11.73;;;;;;;-1.85;100.00;103021.66;5058355;28;20059;-73
2023/01/22 05:00:14;;;;;;;23.48;11.20;;;;;;;-1.90;100.00;103015.13;5053909;28;20107;-73
2023/01/22 05:02:40;;;;;;;27.27;11.70;;;;;;;-1.94;100.00;103012.97;5060967;28;20028;-73
2023/01/22 05:05:07;;;;;;;29.25;12.63;;;;;;;-1.96;100.00;103012.84;5054764;28;20040;-72
2023/01/22 05:07:32;;;;;;;26.25;10.73;;;;;;;-2.01;100.00;103018.28;5053239;28;20021;-73
2023/01/22 05:09:58;;;;;;;22.58;10.93;;;;;;;-2.04;100.00;103014.63;5053691;28;20082;-71
2023/01/22 05:12:23;;;;;;;25.67;12.20;;;;;;;-2.07;100.00;103008.25;5053165;28;20025;-73
2023/01/22 05:14:49;;;;;;;26.23;12.30;;;;;;;-2.11;100.00;103019.91;5051274;28;20029;-73
2023/01/22 05:17:14;;;;;;;25.20;10.70;;;;;;;-2.15;100.00;103015.19;5058051;28;20027;-73
2023/01/22 05:19:40;;;;;;;27.10;11.27;;;;;;;-2.17;100.00;103014.13;5054510;28;20148;-73
2023/01/22 05:22:05;;;;;;;23.15;11.07;;;;;;;-2.19;100.00;103018.22;5053203;28;20029;-73
2023/01/22 05:24:31;;;;;;;23.23;11.38;;;;;;;-2.22;100.00;103016.22;5053664;28;20380;-73
2023/01/22 05:26:56;;;;;;;22.27;11.15;;;;;;;-2.21;100.00;103022.31;5051779;28;20071;-72
2023/01/22 05:29:24;;;;;;;23.25;10.40;;;;;;;-2.19;100.00;103028.53;5053708;28;20036;-73
2023/01/22 05:31:54;;;;;;;24.13;10.40;;;;;;;-2.21;100.00;103022.31;5055452;28;20035;-72
2023/01/22 05:34:20;;;;;;;24.80;11.55;;;;;;;-2.22;100.00;103023.06;5051977;28;20025;-74
2023/01/22 05:36:46;;;;;;;24.23;11.70;;;;;;;-2.26;100.00;103021.81;5051368;28;20292;-72
2023/01/22 05:39:12;;;;;;;30.50;12.05;;;;;;;-2.25;100.00;103023.66;5053410;28;20369;-73
2023/01/22 05:41:37;;;;;;;24.20;10.52;;;;;;;-2.21;100.00;103027.47;5055481;28;20033;-71
2023/01/22 05:44:04;;;;;;;32.63;10.80;;;;;;;-2.20;100.00;103026.69;5059261;28;20035;-73
2023/01/22 05:46:29;;;;;;;20.27;11.13;;;;;;;-2.21;100.00;103017.16;5054001;28;20029;-73
2023/01/22 05:48:56;;;;;;;22.08;11.15;;;;;;;-2.25;100.00;103033.97;5053177;28;20150;-72
2023/01/22 05:51:23;;;;;;;20.85;10.07;;;;;;;-2.25;100.00;103027.88;5059836;28;20031;-73
2023/01/22 05:53:48;;;;;;;22.42;10.77;;;;;;;-2.22;100.00;103034.28;5053234;28;20028;-73
2023/01/22 05:56:14;;;;;;;29.75;12.48;;;;;;;-2.21;100.00;103045.53;5052088;28;20472;-72
2023/01/22 05:58:39;;;;;;;20.23;10.07;;;;;;;-2.17;100.00;103039.94;5052312;28;20031;-72
2023/01/22 06:01:05;;;;;;;20.50;10.88;;;;;;;-2.15;100.00;103042.66;5052094;28;20509;-73
2023/01/22 06:03:30;;;;;;;29.67;10.45;;;;;;;-2.11;100.00;103045.72;5052407;28;20979;-73
2023/01/22 06:05:57;;;;;;;24.65;11.70;;;;;;;-2.09;100.00;103041.63;5064554;28;20476;-74
2023/01/22 06:08:23;;;;;;;29.70;11.45;;;;;;;-2.04;100.00;103042.09;5051698;28;20444;-73
2023/01/22 06:10:48;;;;;;;30.35;12.07;;;;;;;-1.98;100.00;103044.38;5057587;28;20052;-72
2023/01/22 06:13:13;;;;;;;23.30;10.85;;;;;;;-1.94;100.00;103041.38;5057710;28;20032;-73
2023/01/22 06:15:39;;;;;;;25.88;11.90;;;;;;;-1.91;100.00;103034.88;5057934;28;20021;-72
2023/01/22 06:18:04;;;;;;;26.70;11.80;;;;;;;-1.85;100.00;103041.41;5052248;28;20060;-73
2023/01/22 06:20:30;;;;;;;28.25;12.07;;;;;;;-1.81;100.00;103057.34;5054410;28;20567;-73
2023/01/22 06:22:56;;;;;;;24.23;11.30;;;;;;;-1.78;100.00;103051.59;5057438;28;20484;-73
2023/01/22 06:25:21;;;;;;;24.63;11.30;;;;;;;-1.74;100.00;103044.31;5054617;28;20021;-73
2023/01/22 06:27:47;;;;;;;27.25;12.35;;;;;;;-1.72;100.00;103047.97;5050397;28;20389;-73
2023/01/22 06:30:12;;;;;;;20.88;11.07;;;;;;;-1.70;100.00;103049.06;5051040;28;20362;-72
2023/01/22 06:32:37;;;;;;;23.98;11.15;;;;;;;-1.67;100.00;103052.69;5060641;28;20029;-72
2023/01/22 06:35:03;;;;;;;25.90;10.63;;;;;;;-1.64;100.00;103045.25;5054656;28;20392;-72
2023/01/22 06:37:28;;;;;;;20.38;9.65;;;;;;;-1.58;100.00;103048.47;5056672;28;20104;-72
2023/01/22 06:39:54;;;;;;;25.52;11.43;;;;;;;-1.53;100.00;103047.28;5057653;28;20013;-73
2023/01/22 06:42:19;;;;;;;29.42;11.07;;;;;;;-1.51;100.00;103040.56;5057636;28;20025;-72
2023/01/22 06:44:44;;;;;;;22.38;10.68;;;;;;;-1.47;100.00;103042.72;5054084;28;20033;-72
2023/01/22 06:47:10;;;;;;;21.67;9.63;;;;;;;-1.43;100.00;103044.84;5054869;28;20033;-72
2023/01/22 06:49:35;;;;;;;31.45;10.27;;;;;;;-1.42;100.00;103043.19;5054753;28;21055;-72
2023/01/22 06:52:00;;;;;;;23.20;9.70;;;;;;;-1.40;100.00;103045.19;5057518;28;20044;-73
2023/01/22 06:54:26;;;;;;;26.15;11.32;;;;;;;-1.38;100.00;103041.06;5055294;28;20029;-72
2023/01/22 06:56:51;;;;;;;18.10;9.80;;;;;;;-1.38;100.00;103042.75;5055290;28;20023;-72
2023/01/22 06:59:17;;;;;;;19.55;9.73;;;;;;;-1.35;100.00;103040.47;5056319;28;20496;-72
2023/01/22 07:01:42;;;;;;;19.05;10.85;;;;;;;-1.31;100.00;103044.28;5052596;28;20021;-72
2023/01/22 07:04:07;;;;;;;21.35;9.48;;;;;;;-1.29;100.00;103042.75;5050426;28;20037;-73
2023/01/22 07:06:33;;;;;;;17.17;8.43;;;;;;;-1.25;100.00;103048.38;5054303;28;20500;-73
2023/01/22 07:08:58;;;;;;;21.58;9.05;;;;;;;-1.22;100.00;103045.16;5054787;28;20025;-72
2023/01/22 07:11:24;;;;;;;20.08;9.30;;;;;;;-1.20;100.00;103047.16;5055597;28;20483;-72
2023/01/22 07:13:49;;;;;;;18.92;8.95;;;;;;;-1.19;100.00;103041.22;5055069;28;20033;-74
2023/01/22 07:16:14;;;;;;;13.85;7.93;;;;;;;-1.16;100.00;103050.06;5054410;28;20036;-72
2023/01/22 07:18:40;;;;;;;20.45;8.25;;;;;;;-1.19;100.00;103045.50;5054463;28;20048;-72
2023/01/22 07:21:05;;;;;;;18.90;8.85;;;;;;;-1.13;100.00;103047.78;5054388;28;20074;-72
2023/01/22 07:23:30;;;;;;;15.50;7.10;;;;;;;-1.11;100.00;103043.66;5054840;28;20033;-73
2023/01/22 07:25:56;;;;;;;16.27;6.75;;;;;;;-1.06;100.00;103042.44;5052582;28;20036;-75
2023/01/22 07:28:22;;;;;;;13.27;7.60;;;;;;;-1.05;100.00;103042.59;5052720;28;20111;-72
2023/01/22 07:30:47;;;;;;;14.95;7.15;;;;;;;-1.03;100.00;103051.41;5052415;28;20036;-73
2023/01/22 07:33:14;;;;;;;17.15;6.68;;;;;;;-1.02;100.00;103057.50;5058196;28;20033;-73
2023/01/22 07:35:39;;;;;;;15.52;6.32;;;;;;;-0.99;100.00;103054.31;5054769;28;20051;-74
2023/01/22 07:38:05;;;;;;;14.45;6.47;;;;;;;-0.98;100.00;103061.31;5054903;28;20024;-73
2023/01/22 07:40:31;;;;;;;11.38;6.53;;;;;;;-0.99;100.00;103060.41;5055018;28;20028;-73
2023/01/22 07:42:56;;;;;;;10.75;5.57;;;;;;;-0.98;100.00;103061.31;5056838;28;20041;-72
2023/01/22 07:45:25;;;;;;;14.80;6.05;;;;;;;-0.97;100.00;103073.47;5052711;28;20067;-72
2023/01/22 07:47:55;;;;;;;12.52;5.97;;;;;;;-0.98;100.00;103071.63;5057300;28;20078;-73
2023/01/22 07:50:26;;;;;;;11.55;6.00;;;;;;;-0.98;100.00;103076.81;5055906;28;20369;-73
2023/01/22 07:52:51;;;;;;;10.63;6.35;;;;;;;-0.91;100.00;103084.41;5047451;28;20052;-72
2023/01/22 07:55:17;;;;;;;12.13;5.95;;;;;;;-0.91;100.00;103085.31;5052296;28;20060;-72
2023/01/22 07:57:42;;;;;;;17.48;5.72;;;;;;;-0.90;100.00;103088.81;5054082;28;20053;-72
2023/01/22 08:00:11;;;;;;;13.32;6.10;;;;;;;-0.89;100.00;103088.06;5064156;28;20044;-73
2023/01/22 08:02:38;;;;;;;12.07;6.25;;;;;;;-0.89;100.00;103093.22;5055823;28;20033;-74
2023/01/22 08:05:04;;;;;;;13.15;5.97;;;;;;;-0.87;100.00;103092.63;5052954;28;20042;-74
2023/01/22 08:07:30;;;;;;;14.30;6.55;;;;;;;-0.87;100.00;103086.53;5059761;28;20085;-74
2023/01/22 08:09:56;;;;;;;12.70;5.38;;;;;;;-0.88;100.00;103084.72;5054277;28;20029;-73
2023/01/22 08:12:21;;;;;;;13.00;6.22;;;;;;;-0.85;100.00;103079.84;5052998;28;20036;-74
2023/01/22 08:14:47;;;;;;;13.23;5.45;;;;;;;-0.83;100.00;103077.41;5053849;28;20032;-74
2023/01/22 08:17:12;;;;;;;10.05;6.05;;;;;;;-0.81;100.00;103081.97;5053821;28;20526;-73
2023/01/22 08:19:37;;;;;;;9.43;5.60;;;;;;;-0.80;100.00;103088.97;5055245;28;20645;-73
2023/01/22 08:22:03;;;;;;;12.18;5.60;;;;;;;-0.80;100.00;103090.63;5054102;28;20393;-73
2023/01/22 08:24:29;;;;;;;9.38;6.47;;;;;;;-0.77;100.00;103093.53;5052729;28;20508;-75
2023/01/22 08:26:55;;;;;;;11.75;5.35;;;;;;;-0.76;100.00;103088.53;5052647;28;20384;-72
2023/01/22 08:29:21;;;;;;;15.00;5.10;;;;;;;-0.76;100.00;103091.09;5052716;28;20029;-74
2023/01/22 08:31:46;;;;;;;9.75;5.40;;;;;;;-0.74;100.00;103094.72;5051742;28;20036;-74
2023/01/22 08:34:12;;;;;;;14.55;6.93;;;;;;;-0.73;100.00;103096.56;5053373;28;20029;-72
2023/01/22 08:36:37;;;;;;;11.00;6.38;;;;;;;-0.73;100.00;103096.56;5052055;28;20074;-73
2023/01/22 08:39:02;;;;;;;12.73;6.40;;;;;;;-0.73;100.00;103096.56;5052053;28;20040;-74
2023/01/22 08:41:28;;;;;;;11.05;5.97;;;;;;;-0.73;100.00;103095.66;5058570;28;20021;-75
2023/01/22 08:43:53;;;;;;;13.73;5.72;;;;;;;-0.72;100.00;103108.75;5066269;28;20037;-74
2023/01/22 08:46:19;;;;;;;12.70;5.90;;;;;;;-0.70;100.00;103101.13;5053088;28;20072;-74
2023/01/22 08:48:45;;;;;;;14.40;6.35;;;;;;;-0.65;100.00;103104.16;5056053;28;20052;-74
2023/01/22 08:51:11;;;;;;;14.45;6.15;;;;;;;-0.62;100.00;103104.47;5056659;28;20025;-74
2023/01/22 08:53:36;;;;;;;15.38;6.45;;;;;;;-0.58;100.00;103101.44;5051522;28;20874;-74
2023/01/22 08:56:02;;;;;;;16.23;6.40;;;;;;;-0.57;100.00;103104.16;5052091;28;20028;-74
2023/01/22 08:58:27;;;;;;;9.50;7.07;;;;;;;-0.52;100.00;103107.19;5048596;28;20040;-74
2023/01/22 09:00:54;;;;;;;15.35;6.28;;;;;;;-0.51;100.00;103114.19;5049137;28;20404;-75
2023/01/22 09:03:20;;;;;;;10.43;6.13;;;;;;;-0.50;100.00;103105.69;5044885;28;20041;-75
2023/01/22 09:05:45;;;;;;;15.20;6.00;;;;;;;-0.50;100.00;103118.63;5048686;28;20100;-74
2023/01/22 09:08:11;;;;;;;10.95;6.07;;;;;;;-0.52;100.00;103113.31;5048912;28;20127;-76
2023/01/22 09:10:38;;;;;;;11.77;5.80;;;;;;;-0.51;100.00;103115.09;5050221;28;20037;-75
2023/01/22 09:13:04;;;;;;;10.15;5.45;;;;;;;-0.46;100.00;103107.81;5054563;28;20473;-74
2023/01/22 09:15:30;;;;;;;12.88;6.00;;;;;;;-0.50;100.00;103113.44;5051732;28;20023;-75
2023/01/22 09:17:56;;;;;;;11.32;5.45;;;;;;;-0.49;100.00;103104.91;5048512;28;20060;-74
2023/01/22 09:20:21;;;;;;;9.82;5.35;;;;;;;-0.48;100.00;103113.59;5058732;28;20048;-75
2023/01/22 09:22:48;;;;;;;10.07;6.10;;;;;;;-0.46;100.00;103118.16;5056176;28;20028;-74
2023/01/22 09:25:14;;;;;;;12.00;5.68;;;;;;;-0.45;100.00;103117.38;5059291;28;20025;-74
2023/01/22 09:27:40;;;;;;;10.95;5.97;;;;;;;-0.43;100.00;103123.63;5052191;28;20029;-75
2023/01/22 09:30:08;;;;;;;8.10;5.72;;;;;;;-0.42;100.00;103122.88;5052382;28;20510;-75
2023/01/22 09:32:33;;;;;;;11.73;5.57;;;;;;;-0.40;100.00;103123.91;5056988;28;20038;-74
2023/01/22 09:34:59;;;;;;;10.32;5.82;;;;;;;-0.36;100.00;103126.03;5050420;28;20025;-75
2023/01/22 09:37:24;;;;;;;10.05;5.32;;;;;;;-0.35;100.00;103117.50;5049291;28;20060;-76
2023/01/22 09:39:49;;;;;;;9.23;5.18;;;;;;;-0.35;100.00;103117.50;5044176;28;20020;-74
2023/01/22 09:42:39;;;;;;;16.30;6.50;;;;;;;-0.31;100.00;103123.91;5046755;28;20040;-75
2023/01/22 09:45:15;;;;;;;8.50;5.07;;;;;;;-0.24;100.00;103126.31;5050266;28;20029;-75
2023/01/22 09:47:47;;;;;;;8.60;5.13;;;;;;;-0.26;100.00;103129.53;5051744;28;20035;-74
2023/01/22 09:50:17;;;;;;;10.88;5.70;;;;;;;-0.25;100.00;103131.34;5051223;28;20032;-76
2023/01/22 09:52:43;;;;;;;8.70;4.90;;;;;;;-0.22;100.00;103135.16;5052886;28;20116;-76
2023/01/22 09:55:14;;;;;;;9.07;5.25;;;;;;;-0.18;100.00;103136.34;5068217;28;20449;-75
2023/01/22 09:57:45;;;;;;;9.15;5.22;;;;;;;-0.17;100.00;103141.66;5051355;28;20032;-74
2023/01/22 10:00:20;;;;;;;12.07;5.03;;;;;;;-0.15;100.00;103141.81;5045844;28;20051;-75
2023/01/22 10:02:53;;;;;;;10.82;5.18;;;;;;;-0.12;100.00;103144.72;5046564;28;20086;-76
2023/01/22 10:05:34;;;;;;;10.25;5.20;;;;;;;-0.07;100.00;103146.09;5045962;28;20072;-75
2023/01/22 10:08:08;;;;;;;7.88;4.80;;;;;;;-0.08;100.00;103149.44;5045567;28;20025;-75
2023/01/22 10:10:34;;;;;;;12.13;5.60;;;;;;;-0.04;100.00;103140.25;5041960;28;20029;-74
2023/01/22 10:13:19;;;;;;;7.88;5.40;;;;;;;-0.03;100.00;103140.44;5051790;28;20040;-75
2023/01/22 10:15:45;;;;;;;12.18;4.85;;;;;;;0.01;100.00;103143.31;5050866;28;21322;-75
2023/01/22 10:18:30;;;;;;;11.95;4.95;;;;;;;0.01;100.00;103132.97;5046202;28;20103;-74
2023/01/22 10:20:58;;;;;;;7.82;4.47;;;;;;;0.06;100.00;103126.56;5047878;28;20122;-75
2023/01/22 10:23:25;;;;;;;11.20;5.68;;;;;;;0.08;100.00;103128.53;5051775;28;20020;-76
2023/01/22 10:25:58;;;;;;;13.25;6.45;;;;;;;0.13;100.00;103134.13;5043268;28;20458;-75
2023/01/22 10:28:26;;;;;;;10.38;5.70;;;;;;;0.20;100.00;103133.94;5048346;28;20017;-75
2023/01/22 10:30:56;;;;;;;12.25;5.25;;;;;;;0.24;100.00;103132.59;5051060;28;20469;-75
2023/01/22 10:33:22;;;;;;;9.90;5.30;;;;;;;0.24;100.00;103138.66;5053410;28;20017;-75
2023/01/22 10:35:51;;;;;;;10.40;5.60;;;;;;;0.25;100.00;103135.31;5050909;28;20049;-75
2023/01/22 10:38:34;;;;;;;12.77;5.03;;;;;;;0.29;100.00;103123.56;5051539;28;20092;-74
2023/01/22 10:41:02;;;;;;;8.07;4.70;;;;;;;0.39;100.00;103122.78;5047982;28;20021;-75
2023/01/22 10:43:34;;;;;;;12.43;5.40;;;;;;;0.47;100.00;103127.00;5051191;28;20036;-75
2023/01/22 10:46:19;;;;;;;7.82;5.10;;;;;;;0.48;100.00;103131.41;5051490;28;20075;-75
2023/01/22 10:48:44;;;;;;;8.15;4.88;;;;;;;0.56;100.00;103130.47;5050089;28;20119;-76
2023/01/22 10:51:15;;;;;;;8.93;5.35;;;;;;;0.62;100.00;103132.72;5053936;28;20151;-75
2023/01/22 10:53:47;;;;;;;10.88;4.85;;;;;;;0.63;100.00;103139.72;5055240;28;20527;-75
2023/01/22 10:56:23;;;;;;;8.40;5.45;;;;;;;0.66;100.00;103134.81;5051964;28;20029;-75
2023/01/22 10:58:48;;;;;;;8.50;5.53;;;;;;;0.70;100.00;103130.84;5054279;28;20024;-75
2023/01/22 11:01:35;;;;;;;11.88;5.63;;;;;;;0.69;100.00;103126.41;5048609;28;20036;-75
2023/01/22 11:04:23;;;;;;;7.55;4.95;;;;;;;0.73;100.00;103115.56;5049172;28;20056;-74
2023/01/22 11:07:21;;;;;;;6.85;5.20;;;;;;;0.82;100.00;103106.97;5046112;28;20037;-74
2023/01/22 11:09:55;;;;;;;9.90;4.95;;;;;;;0.82;100.00;103116.44;5044169;28;20041;-77
2023/01/22 11:12:24;;;;;;;8.88;5.03;;;;;;;0.80;100.00;103107.59;5049214;28;20020;-76
2023/01/22 11:15:03;;;;;;;8.05;4.80;;;;;;;0.82;100.00;103103.47;5050045;28;20017;-77